CheckWX is a tool to help pilots better visualize weather data.  It is not intended as a substitute for an official pre-flight weather briefing.

00:03:33 UTC

FKKD METAR
Douala International Airport
Douala, Cameroon
Current

1 hour ago

FKKD 182300Z 12003KT 9999 BKN013 FEW016CB 25/25 Q1012 NOSIG
Observed
Oct-18 @ 23:00 UTC
Wind
  • 120° at 3 KTS
Visibility
10,000+ meters
Flight Rules
MVFR
Cloud Levels
  • Broken at 1,300' AGL
  • Few at 1,600' AGL
Temperature
25°C / 77°F
Dewpoint
25°C / 77°F
Humidity
100%
Altimeter
29.88" Hg
Pressure
1011.92 hPa
Previous

2 hours ago

FKKD 182200Z 11003KT 9999 BKN013 FEW016CB 25/25 Q1012 NOSIG
Observed
Oct-18 @ 22:00 UTC
Wind
  • 110° at 3 KTS
Visibility
10,000+ meters
Flight Rules
MVFR
Cloud Levels
  • Broken at 1,300' AGL
  • Few at 1,600' AGL
Temperature
25°C / 77°F
Dewpoint
25°C / 77°F
Humidity
100%
Altimeter
29.88" Hg
Pressure
1011.92 hPa
Previous

3 hours ago

FKKD 182100Z 11002KT 9999 SCT014 FEW016CB 25/25 Q1012 NOSIG
Observed
Oct-18 @ 21:00 UTC
Wind
  • 110° at 2 KTS
Visibility
10,000+ meters
Flight Rules
VFR
Cloud Levels
  • Scattered at 1,400' AGL
  • Few at 1,600' AGL
Temperature
25°C / 77°F
Dewpoint
25°C / 77°F
Humidity
100%
Altimeter
29.88" Hg
Pressure
1011.92 hPa